地図

経路データ

SID SEASON NUMBER BASIN SUBBASIN NAME ISO_TIME NATURE LAT LON WMO_WIND WMO_PRES WMO_AGENCY TRACK_TYPE DIST2LAND LANDFALL IFLAG USA_AGENCY USA_ATCF_ID USA_LAT USA_LON USA_RECORD USA_STATUS USA_WIND USA_PRES USA_SSHS USA_R34_NE USA_R34_SE USA_R34_SW USA_R34_NW USA_R50_NE USA_R50_SE USA_R50_SW USA_R50_NW USA_R64_NE USA_R64_SE USA_R64_SW USA_R64_NW USA_POCI USA_ROCI USA_RMW USA_EYE TOKYO_LAT TOKYO_LON TOKYO_GRADE TOKYO_WIND TOKYO_PRES TOKYO_R50_DIR TOKYO_R50_LONG TOKYO_R50_SHORT TOKYO_R30_DIR TOKYO_R30_LONG TOKYO_R30_SHORT TOKYO_LAND CMA_LAT CMA_LON CMA_CAT CMA_WIND CMA_PRES HKO_LAT HKO_LON HKO_CAT HKO_WIND HKO_PRES NEWDELHI_LAT NEWDELHI_LON NEWDELHI_GRADE NEWDELHI_WIND NEWDELHI_PRES NEWDELHI_CI NEWDELHI_DP NEWDELHI_POCI REUNION_LAT REUNION_LON REUNION_TYPE REUNION_WIND REUNION_PRES REUNION_TNUM REUNION_CI REUNION_RMW REUNION_R34_NE REUNION_R34_SE REUNION_R34_SW REUNION_R34_NW REUNION_R50_NE REUNION_R50_SE REUNION_R50_SW REUNION_R50_NW REUNION_R64_NE REUNION_R64_SE REUNION_R64_SW REUNION_R64_NW BOM_LAT BOM_LON BOM_TYPE BOM_WIND BOM_PRES BOM_TNUM BOM_CI BOM_RMW BOM_R34_NE BOM_R34_SE BOM_R34_SW BOM_R34_NW BOM_R50_NE BOM_R50_SE BOM_R50_SW BOM_R50_NW BOM_R64_NE BOM_R64_SE BOM_R64_SW BOM_R64_NW BOM_ROCI BOM_POCI BOM_EYE BOM_POS_METHOD BOM_PRES_METHOD NADI_LAT NADI_LON NADI_CAT NADI_WIND NADI_PRES WELLINGTON_LAT WELLINGTON_LON WELLINGTON_WIND WELLINGTON_PRES DS824_LAT DS824_LON DS824_STAGE DS824_WIND DS824_PRES TD9636_LAT TD9636_LON TD9636_STAGE TD9636_WIND TD9636_PRES TD9635_LAT TD9635_LON TD9635_WIND TD9635_PRES TD9635_ROCI NEUMANN_LAT NEUMANN_LON NEUMANN_CLASS NEUMANN_WIND NEUMANN_PRES MLC_LAT MLC_LON MLC_CLASS MLC_WIND MLC_PRES USA_GUST BOM_GUST BOM_GUST_PER REUNION_GUST REUNION_GUST_PER USA_SEAHGT USA_SEARAD_NE USA_SEARAD_SE USA_SEARAD_SW USA_SEARAD_NW STORM_SPEED STORM_DIR
1887130N10137 1887 9 WP MM NOT_NAMED 1887-05-09 16:00:00 NR 10.2000 136.500 main 1123 1102 __________O___ -1 10.2000 136.500 7 7 286
1887130N10137 1887 9 WP MM NOT_NAMED 1887-05-09 18:00:00 NR 10.2674 136.266 main 1105 1065 __________P___ -1 10.2674 136.266 7 7 288
1887130N10137 1887 9 WP MM NOT_NAMED 1887-05-09 21:00:00 NR 10.3932 135.904 main 1065 1029 __________P___ -1 10.3932 135.904 7 8 293
1887130N10137 1887 9 WP MM NOT_NAMED 1887-05-10 00:00:00 NR 10.5825 135.509 main 1029 990 __________P___ -1 10.5825 135.509 7 10 300
1887130N10137 1887 9 WP MM NOT_NAMED 1887-05-10 03:00:00 NR 10.8737 135.063 main 993 974 __________P___ -1 10.8737 135.063 7 11 305
1887130N10137 1887 9 WP MM NOT_NAMED 1887-05-10 04:00:00 NR 11.0000 134.900 main 974 938 __________O___ -1 11.0000 134.900 7 13 310
1887130N10137 1887 9 WP MM NOT_NAMED 1887-05-10 06:00:00 NR 11.3010 134.549 main 938 898 __________P___ -1 11.3010 134.549 7 15 313
1887130N10137 1887 9 WP MM NOT_NAMED 1887-05-10 09:00:00 NR 11.8532 133.978 main 899 842 __________P___ -1 11.8532 133.978 7 17 316
1887130N10137 1887 9 WP MM NOT_NAMED 1887-05-10 12:00:00 NR 12.4899 133.381 main 844 797 __________P___ -1 12.4899 133.381 7 18 319
1887130N10137 1887 9 WP MM NOT_NAMED 1887-05-10 15:00:00 NR 13.1704 132.790 main 800 781 __________P___ -1 13.1704 132.790 7 18 320
1887130N10137 1887 9 WP MM NOT_NAMED 1887-05-10 16:00:00 NR 13.4000 132.600 main 781 748 __________O___ -1 13.4000 132.600 7 17 321
1887130N10137 1887 9 WP MM NOT_NAMED 1887-05-10 18:00:00 NR 13.8432 132.226 main 748 718 __________P___ -1 13.8432 132.226 7 17 322
1887130N10137 1887 9 WP MM NOT_NAMED 1887-05-10 21:00:00 NR 14.5275 131.684 main 718 696 __________P___ -1 14.5275 131.684 7 17 324
1887130N10137 1887 9 WP MM NOT_NAMED 1887-05-11 00:00:00 NR 15.2153 131.180 main 701 693 __________P___ -1 15.2153 131.180 7 16 326
1887130N10137 1887 9 WP MM NOT_NAMED 1887-05-11 03:00:00 NR 15.8848 130.733 main 697 695 __________P___ -1 15.8848 130.733 7 16 328
1887130N10137 1887 9 WP MM NOT_NAMED 1887-05-11 04:00:00 NR 16.1000 130.600 main 702 696 __________O___ -1 16.1000 130.600 3 14 328
1887130N10137 1887 9 WP MM NOT_NAMED 1887-05-11 06:00:00 NR 16.4927 130.338 main 696 692 __________P___ -1 16.4927 130.338 3 13 329
1887130N10137 1887 9 WP MM NOT_NAMED 1887-05-11 09:00:00 NR 17.0566 130.003 main 698 695 __________P___ -1 17.0566 130.003 3 13 333
1887130N10137 1887 9 WP MM NOT_NAMED 1887-05-11 12:00:00 NR 17.6152 129.738 main 702 702 __________P___ -1 17.6152 129.738 3 12 339
1887130N10137 1887 9 WP MM NOT_NAMED 1887-05-11 15:00:00 NR 18.1964 129.547 main 727 727 __________P___ -1 18.1964 129.547 3 12 344
1887130N10137 1887 9 WP MM NOT_NAMED 1887-05-11 16:00:00 NR 18.4000 129.500 main 741 741 __________O___ -1 18.4000 129.500 4 14 348
1887130N10137 1887 9 WP MM NOT_NAMED 1887-05-11 18:00:00 NR 18.8562 129.397 main 750 742 __________P___ -1 18.8562 129.397 4 14 351
1887130N10137 1887 9 WP MM NOT_NAMED 1887-05-11 21:00:00 NR 19.5726 129.306 main 748 748 __________P___ -1 19.5726 129.306 4 15 356
1887130N10137 1887 9 WP MM NOT_NAMED 1887-05-12 00:00:00 NR 20.2944 129.293 main 764 764 __________P___ -1 20.2944 129.293 4 14 2
1887130N10137 1887 9 WP MM NOT_NAMED 1887-05-12 03:00:00 NR 20.9838 129.359 main 797 797 __________P___ -1 20.9838 129.359 4 14 6
1887130N10137 1887 9 WP MM NOT_NAMED 1887-05-12 04:00:00 NR 21.2000 129.400 main 805 805 __________O___ -1 21.2000 129.400 4 13 11
1887130N10137 1887 9 WP MM NOT_NAMED 1887-05-12 06:00:00 NR 21.5977 129.485 main 832 830 __________P___ -1 21.5977 129.485 4 12 15
1887130N10137 1887 9 WP MM NOT_NAMED 1887-05-12 09:00:00 NR 22.1502 129.683 main 836 832 __________P___ -1 22.1502 129.683 4 12 22
1887130N10137 1887 9 WP MM NOT_NAMED 1887-05-12 12:00:00 NR 22.6613 129.952 main 848 846 __________P___ -1 22.6613 129.952 4 11 29
1887130N10137 1887 9 WP MM NOT_NAMED 1887-05-12 15:00:00 NR 23.1435 130.280 main 868 860 __________P___ -1 23.1435 130.280 4 11 33
1887130N10137 1887 9 WP MM NOT_NAMED 1887-05-12 16:00:00 NR 23.3000 130.400 main 860 826 __________O___ -1 23.3000 130.400 4 12 36
1887130N10137 1887 9 WP MM NOT_NAMED 1887-05-12 18:00:00 NR 23.6089 130.654 main 826 771 __________P___ -1 23.6089 130.654 4 12 39
1887130N10137 1887 9 WP MM NOT_NAMED 1887-05-12 21:00:00 NR 24.0640 131.063 main 771 729 __________P___ -1 24.0640 131.063 4 12 40
1887130N10137 1887 9 WP MM NOT_NAMED 1887-05-13 00:00:00 NR 24.5112 131.497 main 730 680 __________P___ -1 24.5112 131.497 4 12 42
1887130N10137 1887 9 WP MM NOT_NAMED 1887-05-13 03:00:00 NR 24.9533 131.948 main 680 670 __________P___ -1 24.9533 131.948 4 12 43
1887130N10137 1887 9 WP MM NOT_NAMED 1887-05-13 04:00:00 NR 25.1000 132.100 main 672 __________O___ -1 25.1000 132.100 4 12 43

デジタル台風データ・検索

IBTrACS Databaseについて

本データベースは、米国NOAAが公開する1842年以降の世界の熱帯低気圧のベストトラックデータアーカイブInternational Best Track Archive for Climate Stewardship (IBTrACS)を、ウェブで閲覧しやすい形式に変換したものです。

最終更新日:2021-12-03